Time;durP1;ratioP1;P1;durP2;ratioP2;P2;SDS_P1;SDS_P2;PMS_P1;PMS_P2;Temp;Humidity;BMP_temperature;BMP_pressure;BME280_temperature;BME280_humidity;BME280_pressure;Samples;Min_cycle;Max_cycle;Signal;HPM_P1;HPM_P2
2023/03/27 00:02:13;;;;;;;1.87;1.77;;;;;7.30;94927.00;;;;8468357;28;20215;-70
2023/03/27 00:06:19;;;;;;;2.13;2.03;;;;;7.20;94936.00;;;;8467478;28;20190;-70
2023/03/27 00:10:27;;;;;;;4.20;2.00;;;;;7.20;94930.00;;;;8467582;28;20187;-70
2023/03/27 00:14:31;;;;;;;2.60;2.23;;;;;7.20;94935.00;;;;8468851;28;20544;-70
2023/03/27 00:18:36;;;;;;;3.50;2.10;;;;;7.20;94931.00;;;;8467590;28;20198;-70
2023/03/27 00:22:39;;;;;;;1.92;1.83;;;;;7.10;94932.00;;;;8448979;28;20197;-70
2023/03/27 00:26:44;;;;;;;2.40;2.00;;;;;7.10;94933.00;;;;8468222;28;20209;-70
2023/03/27 00:30:51;;;;;;;2.60;2.40;;;;;7.10;94920.00;;;;8466940;28;20248;-70
2023/03/27 00:34:54;;;;;;;2.37;2.17;;;;;7.10;94930.00;;;;8463434;28;20260;-70
2023/03/27 00:39:04;;;;;;;3.30;2.30;;;;;7.10;94921.00;;;;8467593;28;20684;-70
2023/03/27 00:43:25;;;;;;;2.40;2.30;;;;;7.10;94925.00;;;;8465921;28;20195;-71
2023/03/27 00:47:35;;;;;;;3.47;2.40;;;;;7.10;94923.00;;;;8467350;28;20187;-71
2023/03/27 00:51:39;;;;;;;2.80;2.60;;;;;7.10;94916.00;;;;8464762;28;20404;-71
2023/03/27 00:55:46;;;;;;;2.70;2.50;;;;;7.10;94917.00;;;;8466687;28;20217;-71
2023/03/27 00:59:54;;;;;;;2.67;2.30;;;;;7.10;94914.00;;;;8465456;28;20704;-71
2023/03/27 01:04:01;;;;;;;2.80;2.23;;;;;7.20;94921.00;;;;8466689;28;20666;-70
2023/03/27 01:08:14;;;;;;;3.03;2.33;;;;;7.20;94911.00;;;;8465362;28;20202;-71
2023/03/27 01:12:33;;;;;;;2.67;2.30;;;;;7.10;94911.00;;;;8448874;28;20195;-70
2023/03/27 01:16:48;;;;;;;2.40;2.20;;;;;7.10;94900.00;;;;8465776;28;20505;-71
2023/03/27 01:21:19;;;;;;;5.27;1.87;;;;;7.10;94901.00;;;;8466037;28;20190;-70
2023/03/27 01:25:41;;;;;;;2.20;2.10;;;;;7.10;94912.00;;;;8415223;28;20285;-70
2023/03/27 01:30:04;;;;;;;2.60;2.23;;;;;7.00;94907.00;;;;8465605;28;20191;-70
2023/03/27 01:34:35;;;;;;;2.20;2.10;;;;;7.00;94900.00;;;;8464776;28;20197;-71
2023/03/27 01:39:19;;;;;;;2.43;2.23;;;;;7.10;94906.00;;;;8466038;28;20186;-70
2023/03/27 01:43:30;;;;;;;2.90;2.17;;;;;7.10;94914.00;;;;8464822;28;20187;-71
2023/03/27 01:47:42;;;;;;;4.20;2.63;;;;;7.10;94920.00;;;;8465174;28;20232;-70
2023/03/27 01:51:49;;;;;;;2.50;2.40;;;;;7.10;94922.00;;;;8464878;28;20243;-70
2023/03/27 01:56:00;;;;;;;3.00;2.70;;;;;7.10;94920.00;;;;8464392;28;20240;-70
2023/03/27 02:00:11;;;;;;;3.03;2.80;;;;;7.10;94926.00;;;;8465111;28;20220;-71
2023/03/27 02:04:25;;;;;;;3.43;3.10;;;;;7.00;94925.00;;;;8464500;28;20231;-71
2023/03/27 02:08:35;;;;;;;6.80;3.27;;;;;6.90;94924.00;;;;8465356;28;20318;-71
2023/03/27 02:12:56;;;;;;;3.30;3.00;;;;;7.00;94933.00;;;;8463423;28;20488;-71
2023/03/27 02:17:11;;;;;;;2.97;2.50;;;;;7.00;94934.00;;;;8464479;28;20203;-71
2023/03/27 02:21:15;;;;;;;5.33;3.00;;;;;7.00;94939.00;;;;8445916;28;20191;-71
2023/03/27 02:25:24;;;;;;;2.90;2.70;;;;;7.00;94940.00;;;;8464722;28;20243;-71
2023/03/27 02:29:49;;;;;;;3.60;3.00;;;;;6.90;94949.00;;;;8468687;28;20179;-71
2023/03/27 02:34:14;;;;;;;4.60;2.73;;;;;6.90;94955.00;;;;8471028;28;20194;-71
2023/03/27 02:38:30;;;;;;;3.10;2.80;;;;;6.90;94953.00;;;;8471480;28;20221;-71
2023/03/27 02:42:41;;;;;;;3.80;3.13;;;;;7.00;94960.00;;;;8470120;28;20191;-71
2023/03/27 02:46:52;;;;;;;3.30;2.93;;;;;7.00;94958.00;;;;8470870;28;20640;-71
2023/03/27 02:50:59;;;;;;;3.95;2.70;;;;;7.00;94960.00;;;;8470156;28;20187;-71
2023/03/27 02:55:10;;;;;;;5.97;4.10;;;;;7.00;94968.00;;;;8470041;28;20263;-71
2023/03/27 02:59:26;;;;;;;4.00;2.83;;;;;7.00;94970.00;;;;8469694;28;20206;-72
2023/03/27 03:03:40;;;;;;;3.33;3.00;;;;;7.00;94972.00;;;;8470630;22;20627;-73
2023/03/27 03:07:46;;;;;;;3.97;3.10;;;;;7.00;94972.00;;;;8469771;27;20804;-73
2023/03/27 03:12:02;;;;;;;3.33;3.03;;;;;7.10;94965.00;;;;8465491;27;20205;-72
2023/03/27 03:16:08;;;;;;;2.97;2.73;;;;;7.00;94979.00;;;;8448927;27;20298;-72
2023/03/27 03:20:15;;;;;;;3.93;3.20;;;;;7.00;94998.00;;;;8447052;27;20202;-74
2023/03/27 03:24:20;;;;;;;5.43;3.10;;;;;7.00;95015.00;;;;8468311;27;20209;-72
2023/03/27 03:28:24;;;;;;;3.40;2.70;;;;;6.90;95027.00;;;;8469055;27;20248;-74
2023/03/27 03:32:36;;;;;;;1.90;1.80;;;;;6.70;95037.00;;;;8471450;27;20193;-72
2023/03/27 03:36:43;;;;;;;1.23;1.20;;;;;6.30;95049.00;;;;8467033;27;20241;-75
2023/03/27 03:40:49;;;;;;;1.10;1.10;;;;;6.10;95043.00;;;;8469050;27;20587;-75
2023/03/27 03:44:54;;;;;;;1.03;0.90;;;;;6.00;95064.00;;;;8445894;27;20254;-74
2023/03/27 03:48:57;;;;;;;1.10;1.10;;;;;5.80;95071.00;;;;8443370;27;20198;-76
2023/03/27 03:53:02;;;;;;;1.37;1.00;;;;;5.60;95085.00;;;;8466410;27;20190;-74
2023/03/27 03:57:08;;;;;;;1.03;1.03;;;;;5.40;95102.00;;;;8463680;27;20477;-75
2023/03/27 04:01:14;;;;;;;4.37;1.20;;;;;5.40;95114.00;;;;8466427;27;20248;-75
2023/03/27 04:05:17;;;;;;;0.90;0.90;;;;;5.30;95130.00;;;;8466750;27;20190;-76
2023/03/27 04:09:22;;;;;;;1.20;1.00;;;;;5.20;95142.00;;;;8474202;27;20199;-76
2023/03/27 04:13:26;;;;;;;0.90;0.90;;;;;5.20;95158.00;;;;8449686;27;21436;-75
2023/03/27 04:17:32;;;;;;;1.10;1.10;;;;;5.10;95167.00;;;;8465021;27;20214;-75
2023/03/27 04:21:36;;;;;;;1.33;1.10;;;;;5.00;95171.00;;;;8469801;27;20732;-76
2023/03/27 04:25:41;;;;;;;1.07;1.07;;;;;4.90;95204.00;;;;8470784;27;20204;-76
2023/03/27 04:29:53;;;;;;;1.13;1.13;;;;;4.80;95212.00;;;;8449208;27;20298;-76
2023/03/27 04:33:56;;;;;;;1.00;1.00;;;;;4.70;95226.00;;;;8450114;27;20271;-74
2023/03/27 04:38:00;;;;;;;1.50;1.40;;;;;4.60;95239.00;;;;8458648;27;20356;-73
2023/03/27 04:42:07;;;;;;;1.77;1.67;;;;;4.50;95241.00;;;;8459837;27;20240;-74
2023/03/27 04:46:10;;;;;;;1.23;1.23;;;;;4.40;95256.00;;;;8463432;27;20202;-74
2023/03/27 04:50:15;;;;;;;1.10;1.10;;;;;4.40;95271.00;;;;8455637;27;20213;-73
2023/03/27 04:54:18;;;;;;;1.50;1.40;;;;;4.40;95280.00;;;;8449224;27;20198;-73
2023/03/27 04:58:25;;;;;;;1.70;1.60;;;;;4.30;95286.00;;;;8464044;27;20930;-73
2023/03/27 05:02:30;;;;;;;2.13;2.03;;;;;4.30;95311.00;;;;8463307;27;20237;-73
2023/03/27 05:06:46;;;;;;;1.83;1.73;;;;;4.20;95305.00;;;;8474248;27;20191;-74
2023/03/27 05:10:57;;;;;;;2.90;2.17;;;;;4.20;95324.00;;;;8466446;27;20193;-72
2023/03/27 05:15:05;;;;;;;2.53;2.10;;;;;4.10;95357.00;;;;8446936;27;20704;-73
2023/03/27 05:19:08;;;;;;;3.60;2.10;;;;;4.10;95361.00;;;;8469319;27;20229;-73
2023/03/27 05:23:13;;;;;;;6.97;2.87;;;;;4.10;95364.00;;;;8464868;27;20206;-72
2023/03/27 05:27:16;;;;;;;4.90;2.53;;;;;4.10;95371.00;;;;8465569;27;20297;-74
2023/03/27 05:31:25;;;;;;;3.10;2.10;;;;;4.10;95386.00;;;;8459712;27;20235;-73
2023/03/27 05:35:30;;;;;;;2.70;2.33;;;;;4.10;95409.00;;;;8461726;27;20247;-73
2023/03/27 05:39:35;;;;;;;3.33;3.03;;;;;4.10;95403.00;;;;8467208;27;20232;-73
2023/03/27 05:43:38;;;;;;;3.93;2.30;;;;;3.90;95417.00;;;;8455859;27;20235;-74
2023/03/27 05:47:47;;;;;;;2.73;2.10;;;;;3.80;95431.00;;;;8465730;27;20226;-78
2023/03/27 05:51:53;;;;;;;2.07;1.93;;;;;3.70;95438.00;;;;8469967;27;20206;-73
2023/03/27 05:55:59;;;;;;;1.60;1.50;;;;;3.60;95448.00;;;;8465320;27;20718;-75
2023/03/27 06:00:12;;;;;;;3.13;1.83;;;;;3.50;95467.00;;;;8461158;27;20198;-78
2023/03/27 06:04:22;;;;;;;1.50;1.40;;;;;3.40;95477.00;;;;8461609;27;20263;-76
2023/03/27 06:08:28;;;;;;;1.67;1.53;;;;;3.30;95487.00;;;;8465071;27;20210;-73
2023/03/27 06:12:32;;;;;;;3.07;2.13;;;;;3.20;95503.00;;;;8464646;27;20205;-76
2023/03/27 06:16:35;;;;;;;5.67;2.50;;;;;3.20;95502.00;;;;8463754;27;20230;-80
2023/03/27 06:20:41;;;;;;;1.80;1.57;;;;;3.20;95508.00;;;;8459836;27;20236;-76
2023/03/27 06:24:45;;;;;;;3.93;2.30;;;;;3.20;95508.00;;;;8443647;28;20198;-76
2023/03/27 06:28:48;;;;;;;6.47;2.40;;;;;3.30;95521.00;;;;8460804;28;20199;-74
2023/03/27 06:32:53;;;;;;;3.93;2.20;;;;;3.50;95531.00;;;;8458214;28;20254;-74
2023/03/27 06:37:01;;;;;;;4.30;2.37;;;;;3.50;95548.00;;;;8458570;28;20226;-73
2023/03/27 06:41:10;;;;;;;9.00;3.53;;;;;3.70;95577.00;;;;8457164;28;20807;-73
2023/03/27 06:45:13;;;;;;;3.83;2.60;;;;;3.70;95570.00;;;;8461655;28;20799;-73
2023/03/27 06:49:16;;;;;;;9.17;3.80;;;;;3.90;95593.00;;;;8456409;28;20283;-73
2023/03/27 06:53:21;;;;;;;2.23;2.00;;;;;4.00;95606.00;;;;8456204;28;20708;-73
2023/03/27 06:57:36;;;;;;;4.10;2.67;;;;;4.10;95626.00;;;;8462660;28;20218;-73
2023/03/27 07:01:42;;;;;;;2.47;2.27;;;;;4.10;95627.00;;;;8465746;28;20230;-73
2023/03/27 07:05:50;;;;;;;10.10;4.50;;;;;4.10;95656.00;;;;8450587;28;20206;-72
2023/03/27 07:09:55;;;;;;;8.20;3.43;;;;;4.00;95670.00;;;;8451588;28;20217;-72
2023/03/27 07:13:59;;;;;;;6.43;2.73;;;;;4.10;95673.00;;;;8455783;27;20230;-72
2023/03/27 07:18:05;;;;;;;8.17;3.10;;;;;4.10;95677.00;;;;8463807;27;20226;-73
2023/03/27 07:22:13;;;;;;;13.63;4.27;;;;;4.20;95683.00;;;;8458371;27;20551;-72
2023/03/27 07:26:17;;;;;;;10.33;3.70;;;;;4.20;95687.00;;;;8462176;27;20195;-72
2023/03/27 07:30:21;;;;;;;8.87;3.63;;;;;4.30;95704.00;;;;8469384;27;20244;-72
2023/03/27 07:34:24;;;;;;;14.00;4.40;;;;;4.40;95724.00;;;;8469954;27;20247;-72
2023/03/27 07:38:28;;;;;;;11.77;4.20;;;;;4.40;95734.00;;;;8450971;27;20228;-72
2023/03/27 07:42:36;;;;;;;7.73;4.03;;;;;4.50;95723.00;;;;8466569;27;20202;-72
2023/03/27 07:46:45;;;;;;;16.60;4.37;;;;;4.60;95738.00;;;;8463425;27;20248;-71
2023/03/27 07:50:51;;;;;;;11.17;4.27;;;;;4.70;95742.00;;;;8462249;27;20748;-72
2023/03/27 07:54:57;;;;;;;12.80;4.17;;;;;4.90;95761.00;;;;8461155;27;20206;-72
2023/03/27 07:59:02;;;;;;;7.97;3.70;;;;;5.00;95761.00;;;;8457826;27;20971;-72
2023/03/27 08:03:07;;;;;;;4.67;3.47;;;;;5.00;95783.00;;;;8461082;27;20228;-72
2023/03/27 08:07:12;;;;;;;13.07;3.83;;;;;5.00;95776.00;;;;8462450;27;20205;-72
2023/03/27 08:11:15;;;;;;;6.17;3.30;;;;;5.10;95790.00;;;;8464405;27;20195;-72
2023/03/27 08:15:38;;;;;;;4.17;3.50;;;;;5.10;95800.00;;;;8463075;27;20227;-71
2023/03/27 08:19:44;;;;;;;7.70;3.67;;;;;5.20;95806.00;;;;8467251;27;20306;-71
2023/03/27 08:23:47;;;;;;;6.13;3.43;;;;;5.30;95813.00;;;;8457427;27;20247;-71
2023/03/27 08:27:51;;;;;;;4.90;3.40;;;;;5.20;95813.00;;;;8468630;27;20195;-72
2023/03/27 08:31:55;;;;;;;8.53;4.40;;;;;5.10;95823.00;;;;8466456;28;20199;-71
2023/03/27 08:35:58;;;;;;;7.23;3.77;;;;;4.90;95830.00;;;;8468309;28;20197;-69
2023/03/27 08:40:12;;;;;;;7.40;3.93;;;;;4.80;95838.00;;;;8468426;28;20214;-70
2023/03/27 08:44:20;;;;;;;7.73;4.07;;;;;4.80;95842.00;;;;8468153;28;20198;-70
2023/03/27 08:48:30;;;;;;;4.07;2.57;;;;;4.80;95853.00;;;;8467090;28;20281;-71
2023/03/27 08:52:34;;;;;;;6.80;3.77;;;;;4.90;95868.00;;;;8467284;28;20232;-70
2023/03/27 08:56:40;;;;;;;9.23;3.60;;;;;5.10;95878.00;;;;8467809;28;20627;-70
2023/03/27 09:00:45;;;;;;;9.67;4.83;;;;;5.00;95889.00;;;;8467644;28;20214;-71
2023/03/27 09:04:58;;;;;;;8.13;3.63;;;;;4.90;95910.00;;;;8467181;28;20247;-71
2023/03/27 09:09:06;;;;;;;7.73;4.03;;;;;5.00;95909.00;;;;8466831;28;20195;-71
2023/03/27 09:13:15;;;;;;;4.20;3.40;;;;;5.00;95911.00;;;;8466625;28;20197;-71
2023/03/27 09:17:23;;;;;;;7.77;3.80;;;;;5.10;95919.00;;;;8466612;27;20211;-70
2023/03/27 09:21:36;;;;;;;4.20;3.60;;;;;5.20;95928.00;;;;8466065;28;20186;-70
2023/03/27 09:25:44;;;;;;;6.43;3.50;;;;;5.30;95945.00;;;;8467352;28;20247;-71
2023/03/27 09:29:59;;;;;;;5.53;3.57;;;;;5.30;95951.00;;;;8465663;28;20195;-71
2023/03/27 09:34:13;;;;;;;6.90;3.03;;;;;5.30;95953.00;;;;8466748;28;20186;-71
2023/03/27 09:38:26;;;;;;;4.10;2.87;;;;;5.90;95970.00;;;;8465529;28;20214;-71
2023/03/27 09:42:37;;;;;;;4.20;3.77;;;;;7.10;95971.00;;;;8465980;28;20183;-71
2023/03/27 09:46:47;;;;;;;4.70;3.90;;;;;8.10;95976.00;;;;8466102;28;20191;-71
2023/03/27 09:50:50;;;;;;;3.30;3.10;;;;;8.80;95982.00;;;;8465494;28;20311;-71
2023/03/27 09:54:55;;;;;;;4.87;2.70;;;;;8.30;95989.00;;;;8465092;28;20202;-71
2023/03/27 09:59:00;;;;;;;2.17;1.90;;;;;7.60;95991.00;;;;8465912;28;20214;-71
2023/03/27 10:03:06;;;;;;;2.17;1.97;;;;;7.70;96009.00;;;;8465204;28;20703;-71
2023/03/27 10:07:23;;;;;;;4.77;2.00;;;;;8.00;96000.00;;;;8466121;28;20198;-70
2023/03/27 10:11:31;;;;;;;2.87;2.50;;;;;7.50;96018.00;;;;8464964;28;20255;-71
2023/03/27 10:15:37;;;;;;;4.67;2.10;;;;;7.50;96030.00;;;;8464879;28;20286;-70
2023/03/27 10:19:42;;;;;;;3.97;1.97;;;;;7.40;96040.00;;;;8463470;28;20674;-71
2023/03/27 10:23:51;;;;;;;4.33;2.03;;;;;7.60;96050.00;;;;8465279;28;20191;-71
2023/03/27 10:28:07;;;;;;;2.33;1.77;;;;;8.20;96039.00;;;;8464762;28;20203;-71
2023/03/27 10:32:10;;;;;;;2.77;1.63;;;;;8.60;96053.00;;;;8465174;28;20686;-71
2023/03/27 10:36:15;;;;;;;2.77;1.60;;;;;8.60;96071.00;;;;8464812;28;20198;-72
2023/03/27 10:40:23;;;;;;;2.17;1.90;;;;;8.40;96055.00;;;;8465238;28;20218;-72
2023/03/27 10:44:30;;;;;;;1.50;1.40;;;;;8.30;96073.00;;;;8465032;28;20194;-72
2023/03/27 10:48:46;;;;;;;4.50;1.70;;;;;7.60;96069.00;;;;8465684;28;20199;-72
2023/03/27 10:52:59;;;;;;;3.90;1.63;;;;;7.00;96082.00;;;;8472217;28;20183;-71
2023/03/27 10:57:07;;;;;;;1.60;1.50;;;;;7.00;96074.00;;;;8469559;28;20199;-72
2023/03/27 11:01:18;;;;;;;4.27;1.70;;;;;6.90;96085.00;;;;8470851;28;20229;-72
2023/03/27 11:05:26;;;;;;;2.13;1.30;;;;;6.90;96078.00;;;;8470925;28;20205;-71
2023/03/27 11:09:36;;;;;;;7.97;1.47;;;;;6.70;96107.00;;;;8471258;28;20256;-71
2023/03/27 11:13:44;;;;;;;2.43;1.63;;;;;7.60;96102.00;;;;8470407;28;20191;-72
2023/03/27 11:17:58;;;;;;;2.10;1.53;;;;;8.20;96093.00;;;;8470874;28;20195;-71
2023/03/27 11:22:06;;;;;;;4.37;2.73;;;;;8.80;96129.00;;;;8471256;28;20291;-71
2023/03/27 11:26:14;;;;;;;1.63;1.53;;;;;9.00;96110.00;;;;8470297;28;20206;-71
2023/03/27 11:30:30;;;;;;;5.90;1.50;;;;;8.60;96123.00;;;;8469723;28;20237;-71
2023/03/27 11:34:40;;;;;;;2.57;1.40;;;;;8.80;96124.00;;;;8469659;28;20267;-71
2023/03/27 11:38:50;;;;;;;2.33;1.40;;;;;8.80;96125.00;;;;8469262;28;20267;-72
2023/03/27 11:42:53;;;;;;;4.35;1.73;;;;;8.30;96145.00;;;;8470251;28;20191;-71
2023/03/27 11:47:28;;;;;;;7.30;3.40;;;;;7.90;96141.00;;;;8470332;28;20264;-71
2023/03/27 11:51:47;;;;;;;3.63;1.53;;;;;7.70;96137.00;;;;8457654;28;20194;-71
2023/03/27 11:56:09;;;;;;;1.63;1.45;;;;;7.70;96153.00;;;;8468707;28;20237;-71
2023/03/27 12:00:24;;;;;;;6.90;1.70;;;;;7.70;96163.00;;;;8468701;28;20226;-71
2023/03/27 12:04:44;;;;;;;2.80;1.40;;;;;7.10;96148.00;;;;8469684;28;20283;-71
2023/03/27 12:09:11;;;;;;;2.70;1.67;;;;;7.00;96157.00;;;;8469598;28;20504;-71
2023/03/27 12:13:48;;;;;;;3.70;1.60;;;;;7.30;96152.00;;;;8468359;28;20195;-71
2023/03/27 12:18:16;;;;;;;3.03;1.47;;;;;7.50;96168.00;;;;8469328;28;20492;-71
2023/03/27 12:22:28;;;;;;;3.23;1.67;;;;;7.10;96171.00;;;;8469351;28;20565;-71
2023/03/27 12:27:04;;;;;;;2.53;1.30;;;;;6.90;96182.00;;;;8468464;28;20199;-72
2023/03/27 12:31:27;;;;;;;2.40;1.50;;;;;7.10;96181.00;;;;8467852;28;20195;-72
2023/03/27 12:35:35;;;;;;;2.97;1.40;;;;;7.30;96187.00;;;;8467920;28;20629;-71
2023/03/27 12:39:48;;;;;;;1.80;1.37;;;;;7.50;96191.00;;;;8467943;27;20734;-71
2023/03/27 12:43:57;;;;;;;1.70;1.00;;;;;7.50;96179.00;;;;8467777;28;20544;-71
2023/03/27 12:48:23;;;;;;;1.80;1.50;;;;;7.50;96191.00;;;;8467251;28;20252;-72
2023/03/27 12:52:27;;;;;;;3.87;1.10;;;;;7.60;96182.00;;;;8467643;28;20201;-71
2023/03/27 12:56:36;;;;;;;2.88;1.20;;;;;7.90;96188.00;;;;8467604;28;20195;-71
2023/03/27 13:00:42;;;;;;;2.50;1.50;;;;;8.40;96192.00;;;;8467148;27;20218;-71
2023/03/27 13:05:19;;;;;;;4.27;1.60;;;;;8.70;96186.00;;;;8467290;28;20245;-72
2023/03/27 13:09:52;;;;;;;3.50;1.58;;;;;8.60;96189.00;;;;8466964;28;20604;-71
2023/03/27 13:14:26;;;;;;;1.93;1.50;;;;;8.30;96192.00;;;;8457974;28;20198;-72
2023/03/27 13:18:59;;;;;;;2.40;1.80;;;;;8.10;96189.00;;;;8466104;28;20191;-71
2023/03/27 13:23:24;;;;;;;3.10;1.30;;;;;8.10;96185.00;;;;8466614;28;20191;-71
2023/03/27 13:27:42;;;;;;;1.40;1.30;;;;;8.30;96202.00;;;;8466427;27;20186;-71
2023/03/27 13:32:06;;;;;;;3.65;1.90;;;;;8.40;96204.00;;;;8467245;28;20505;-71
2023/03/27 13:36:18;;;;;;;5.13;1.35;;;;;8.50;96238.00;;;;8466473;28;20191;-72
2023/03/27 13:40:26;;;;;;;2.13;1.50;;;;;7.70;96244.00;;;;8466355;28;20219;-71
2023/03/27 13:44:50;;;;;;;1.90;1.40;;;;;6.80;96253.00;;;;8465452;28;20202;-71
2023/03/27 13:49:13;;;;;;;4.40;1.30;;;;;6.50;96255.00;;;;8463359;28;20231;-71
2023/03/27 13:53:34;;;;;;;1.33;1.23;;;;;6.50;96241.00;;;;8465382;28;20285;-71
2023/03/27 13:57:52;;;;;;;1.10;1.10;;;;;6.80;96231.00;;;;8462206;28;20206;-71
2023/03/27 14:02:11;;;;;;;2.10;1.40;;;;;7.20;96233.00;;;;8459272;28;20291;-71
2023/03/27 14:06:53;;;;;;;4.60;2.00;;;;;7.90;96215.00;;;;8461571;28;20191;-71
2023/03/27 14:11:08;;;;;;;1.87;1.60;;;;;8.10;96242.00;;;;8463726;28;20199;-71
2023/03/27 14:15:34;;;;;;;3.37;1.80;;;;;8.10;96250.00;;;;8464273;28;20195;-72
2023/03/27 14:20:17;;;;;;;1.30;1.20;;;;;8.50;96244.00;;;;8462152;28;20267;-72
2023/03/27 14:24:32;;;;;;;4.03;1.60;;;;;8.30;96261.00;;;;8459815;28;20232;-71
2023/03/27 14:28:50;;;;;;;2.30;1.93;;;;;8.00;96263.00;;;;8464288;28;20198;-72
2023/03/27 14:33:02;;;;;;;3.80;2.10;;;;;8.00;96262.00;;;;8464082;28;20198;-72
2023/03/27 14:37:27;;;;;;;3.67;1.37;;;;;7.80;96278.00;;;;8465102;28;20195;-70
2023/03/27 14:41:32;;;;;;;2.93;1.30;;;;;6.80;96307.00;;;;8463929;28;20257;-69
2023/03/27 14:45:56;;;;;;;2.77;1.43;;;;;5.70;96291.00;;;;8463442;28;20484;-68
2023/03/27 14:50:01;;;;;;;1.57;1.30;;;;;5.90;96279.00;;;;8464398;28;20193;-68
2023/03/27 14:54:07;;;;;;;9.87;2.10;;;;;6.10;96277.00;;;;8464261;28;20278;-69
2023/03/27 14:58:18;;;;;;;3.17;1.20;;;;;6.60;96281.00;;;;8464118;28;20243;-69
2023/03/27 15:02:29;;;;;;;1.67;1.40;;;;;6.90;96280.00;;;;8464062;28;20267;-70
2023/03/27 15:06:37;;;;;;;4.73;1.30;;;;;7.10;96290.00;;;;8464584;28;20195;-70
2023/03/27 15:10:40;;;;;;;1.30;1.23;;;;;7.30;96294.00;;;;8463272;28;20191;-70
2023/03/27 15:14:43;;;;;;;6.23;1.50;;;;;7.50;96303.00;;;;8464671;28;20240;-70
2023/03/27 15:18:59;;;;;;;5.00;1.50;;;;;7.40;96300.00;;;;8463125;28;20228;-70
2023/03/27 15:23:08;;;;;;;3.57;1.53;;;;;7.10;96314.00;;;;8463205;28;20636;-70
2023/03/27 15:27:19;;;;;;;2.80;1.40;;;;;6.80;96324.00;;;;8463521;28;20194;-70
2023/03/27 15:31:28;;;;;;;1.50;1.40;;;;;6.50;96335.00;;;;8463853;28;20592;-70
2023/03/27 15:35:36;;;;;;;1.87;1.60;;;;;6.10;96323.00;;;;8465338;28;20253;-70
2023/03/27 15:40:05;;;;;;;2.53;1.40;;;;;6.00;96330.00;;;;8467630;28;20241;-69
2023/03/27 15:44:12;;;;;;;3.20;1.73;;;;;5.90;96347.00;;;;8467861;28;20193;-70
2023/03/27 15:48:20;;;;;;;2.77;1.50;;;;;5.70;96354.00;;;;8466757;28;20190;-70
2023/03/27 15:52:32;;;;;;;2.50;1.93;;;;;5.50;96355.00;;;;8461765;28;20197;-70
2023/03/27 15:56:47;;;;;;;1.83;1.60;;;;;5.30;96352.00;;;;8469258;28;20566;-70
2023/03/27 16:00:53;;;;;;;3.23;1.70;;;;;5.10;96345.00;;;;8466233;28;20225;-70
2023/03/27 16:04:57;;;;;;;2.97;1.50;;;;;5.30;96344.00;;;;8465545;28;20292;-70
2023/03/27 16:09:16;;;;;;;1.63;1.43;;;;;5.80;96358.00;;;;8468459;28;20195;-70
2023/03/27 16:13:28;;;;;;;1.40;1.40;;;;;6.00;96355.00;;;;8467394;28;20267;-70
2023/03/27 16:17:38;;;;;;;2.43;1.50;;;;;6.50;96357.00;;;;8466107;28;20248;-71
2023/03/27 16:21:54;;;;;;;2.03;1.70;;;;;6.80;96360.00;;;;8468579;28;20214;-71
2023/03/27 16:26:03;;;;;;;1.80;1.70;;;;;7.10;96369.00;;;;8467663;27;20247;-71
2023/03/27 16:30:21;;;;;;;2.37;1.60;;;;;7.20;96365.00;;;;8468262;28;20194;-71
2023/03/27 16:34:25;;;;;;;1.73;1.53;;;;;6.90;96363.00;;;;8467751;28;20253;-71
2023/03/27 16:38:34;;;;;;;2.67;1.80;;;;;6.60;96373.00;;;;8468566;28;20634;-71
2023/03/27 16:42:38;;;;;;;7.50;2.03;;;;;6.20;96365.00;;;;8467917;28;20314;-71
2023/03/27 16:46:45;;;;;;;1.97;1.87;;;;;5.80;96374.00;;;;8465985;28;20589;-71
2023/03/27 16:50:48;;;;;;;3.97;1.73;;;;;5.50;96380.00;;;;8466754;27;20722;-70
2023/03/27 16:54:53;;;;;;;4.67;1.90;;;;;5.30;96380.00;;;;8466131;28;20210;-71
2023/03/27 16:58:59;;;;;;;3.03;1.87;;;;;5.20;96385.00;;;;8467526;28;20198;-71
2023/03/27 17:03:02;;;;;;;4.93;1.90;;;;;5.00;96393.00;;;;8466985;28;20376;-71
2023/03/27 17:07:07;;;;;;;1.80;1.70;;;;;4.90;96394.00;;;;8467045;28;20194;-71
2023/03/27 17:11:13;;;;;;;3.33;2.10;;;;;4.80;96396.00;;;;8467016;28;20254;-71
2023/03/27 17:15:20;;;;;;;5.53;1.93;;;;;4.80;96395.00;;;;8466941;28;20532;-71
2023/03/27 17:19:23;;;;;;;1.80;1.67;;;;;4.80;96418.00;;;;8466649;28;20198;-71
2023/03/27 17:23:26;;;;;;;2.07;1.97;;;;;4.80;96401.00;;;;8467494;28;20743;-71
2023/03/27 17:27:34;;;;;;;3.47;2.10;;;;;4.60;96402.00;;;;8464694;28;20201;-70
2023/03/27 17:31:38;;;;;;;3.17;2.60;;;;;4.40;96401.00;;;;8464944;28;20185;-70
2023/03/27 17:35:42;;;;;;;14.27;8.90;;;;;4.10;96412.00;;;;8466047;28;20187;-71
2023/03/27 17:39:46;;;;;;;11.27;6.43;;;;;4.00;96415.00;;;;8466222;28;20194;-70
2023/03/27 17:43:49;;;;;;;5.50;3.13;;;;;3.80;96422.00;;;;8459764;28;20225;-70
2023/03/27 17:47:54;;;;;;;4.07;2.20;;;;;3.70;96421.00;;;;8459590;28;20194;-71
2023/03/27 17:51:57;;;;;;;3.33;2.00;;;;;3.60;96431.00;;;;8465314;28;20204;-71
2023/03/27 17:56:00;;;;;;;3.53;2.80;;;;;3.50;96436.00;;;;8461263;28;20282;-71
2023/03/27 18:00:05;;;;;;;2.20;2.00;;;;;3.50;96436.00;;;;8460730;28;20245;-71
2023/03/27 18:04:16;;;;;;;6.73;2.23;;;;;3.40;96436.00;;;;8465530;28;20232;-71
2023/03/27 18:08:20;;;;;;;7.57;2.47;;;;;3.30;96436.00;;;;8465270;28;20181;-72
2023/03/27 18:12:23;;;;;;;5.07;2.40;;;;;3.20;96452.00;;;;8465300;28;20202;-72
2023/03/27 18:16:27;;;;;;;11.47;2.83;;;;;3.10;96455.00;;;;8464840;28;20686;-72
2023/03/27 18:20:31;;;;;;;25.13;22.63;;;;;3.10;96471.00;;;;8465324;28;20302;-71
2023/03/27 18:24:36;;;;;;;13.10;10.87;;;;;3.00;96470.00;;;;8464517;28;20232;-70
2023/03/27 18:28:45;;;;;;;19.17;17.30;;;;;3.00;96483.00;;;;8463789;28;20573;-77
2023/03/27 18:32:48;;;;;;;6.60;3.80;;;;;2.90;96477.00;;;;8465348;28;20192;-78
2023/03/27 18:36:54;;;;;;;5.90;3.70;;;;;2.90;96489.00;;;;8463509;28;20225;-77
2023/03/27 18:41:03;;;;;;;4.37;2.70;;;;;2.80;96494.00;;;;8465313;28;20223;-75
2023/03/27 18:45:08;;;;;;;7.70;3.00;;;;;2.80;96492.00;;;;8464603;28;20585;-75
2023/03/27 18:49:11;;;;;;;6.87;2.97;;;;;2.80;96497.00;;;;8463674;28;20229;-75
2023/03/27 18:53:28;;;;;;;3.60;2.80;;;;;2.80;96497.00;;;;8463725;28;20189;-75
2023/03/27 18:57:33;;;;;;;6.17;3.03;;;;;2.80;96503.00;;;;8462809;28;20238;-75
2023/03/27 19:01:39;;;;;;;6.53;2.40;;;;;2.70;96500.00;;;;8463985;28;20229;-75
2023/03/27 19:05:43;;;;;;;5.00;2.70;;;;;2.60;96502.00;;;;8464696;28;20280;-73
2023/03/27 19:09:48;;;;;;;6.93;3.00;;;;;2.60;96494.00;;;;8465642;28;20188;-73
2023/03/27 19:13:51;;;;;;;5.17;2.73;;;;;2.50;96498.00;;;;8467268;28;20191;-72
2023/03/27 19:17:55;;;;;;;5.60;3.20;;;;;2.40;96506.00;;;;8470851;28;20219;-71
2023/03/27 19:22:01;;;;;;;5.97;3.13;;;;;2.30;96505.00;;;;8469424;28;20316;-71
2023/03/27 19:26:10;;;;;;;5.63;3.13;;;;;2.30;96503.00;;;;8469862;28;20195;-70
2023/03/27 19:30:17;;;;;;;5.43;3.40;;;;;2.30;96504.00;;;;8470176;28;20190;-70
2023/03/27 19:34:22;;;;;;;5.07;3.20;;;;;2.40;96514.00;;;;8469824;28;20205;-70
2023/03/27 19:38:38;;;;;;;8.97;3.27;;;;;2.60;96527.00;;;;8465883;28;20184;-69
2023/03/27 19:42:47;;;;;;;5.47;2.90;;;;;2.80;96531.00;;;;8468383;28;20218;-69
2023/03/27 19:46:52;;;;;;;5.37;2.77;;;;;2.90;96530.00;;;;8468107;28;20249;-70
2023/03/27 19:51:02;;;;;;;6.53;2.53;;;;;3.10;96543.00;;;;8469801;28;20558;-69
2023/03/27 19:55:08;;;;;;;2.93;2.17;;;;;3.20;96553.00;;;;8468765;28;20644;-69
2023/03/27 19:59:15;;;;;;;7.33;2.93;;;;;3.10;96552.00;;;;8465946;28;20641;-68
2023/03/27 20:03:33;;;;;;;5.87;2.90;;;;;2.90;96537.00;;;;8467840;28;20313;-69
2023/03/27 20:07:37;;;;;;;5.93;3.27;;;;;2.80;96549.00;;;;8466140;28;20541;-68
2023/03/27 20:11:45;;;;;;;4.00;2.80;;;;;2.70;96537.00;;;;8467999;28;20194;-69
2023/03/27 20:15:51;;;;;;;5.57;3.00;;;;;2.70;96546.00;;;;8468484;28;20200;-69
2023/03/27 20:20:00;;;;;;;5.40;3.10;;;;;2.60;96546.00;;;;8468682;28;20239;-71
2023/03/27 20:24:09;;;;;;;6.77;3.27;;;;;2.50;96555.00;;;;8465919;28;20227;-70
2023/03/27 20:28:15;;;;;;;6.87;3.00;;;;;2.50;96549.00;;;;8468287;27;20192;-70
2023/03/27 20:32:20;;;;;;;4.97;2.93;;;;;2.50;96550.00;;;;8468640;28;20626;-69
2023/03/27 20:36:32;;;;;;;4.83;2.60;;;;;2.40;96552.00;;;;8466824;28;20229;-70
2023/03/27 20:40:44;;;;;;;3.07;2.87;;;;;2.40;96561.00;;;;8467312;28;20195;-70
2023/03/27 20:44:57;;;;;;;4.10;2.77;;;;;2.40;96557.00;;;;8468505;28;20220;-70
2023/03/27 20:49:02;;;;;;;4.50;2.80;;;;;2.50;96561.00;;;;8468290;28;20254;-70
2023/03/27 20:53:06;;;;;;;10.10;3.63;;;;;2.60;96562.00;;;;8467598;28;20192;-70
2023/03/27 20:57:11;;;;;;;6.17;3.20;;;;;2.70;96570.00;;;;8467559;28;20208;-70
2023/03/27 21:01:18;;;;;;;6.03;2.63;;;;;2.70;96574.00;;;;8466283;28;20204;-71
2023/03/27 21:05:28;;;;;;;4.43;2.57;;;;;2.70;96572.00;;;;8467768;28;20192;-70